sensor_id;sensor_type;location;lat;lon;timestamp;P1;durP1;ratioP1;P2;durP2;ratioP2
6422;SDS011;3244;42.708;23.288;2023-04-24T00:02:06;9.52;;;6.15;;
6422;SDS011;3244;42.708;23.288;2023-04-24T00:04:35;6.68;;;5.63;;
6422;SDS011;3244;42.708;23.288;2023-04-24T00:07:05;6.57;;;5.90;;
6422;SDS011;3244;42.708;23.288;2023-04-24T00:09:32;5.40;;;4.90;;
6422;SDS011;3244;42.708;23.288;2023-04-24T00:12:00;9.60;;;6.57;;
6422;SDS011;3244;42.708;23.288;2023-04-24T00:14:27;7.47;;;5.90;;
6422;SDS011;3244;42.708;23.288;2023-04-24T00:16:54;7.20;;;5.93;;
6422;SDS011;3244;42.708;23.288;2023-04-24T00:19:21;9.50;;;5.63;;
6422;SDS011;3244;42.708;23.288;2023-04-24T00:21:48;5.88;;;5.30;;
6422;SDS011;3244;42.708;23.288;2023-04-24T00:24:15;11.77;;;5.95;;
6422;SDS011;3244;42.708;23.288;2023-04-24T00:26:42;7.82;;;5.30;;
6422;SDS011;3244;42.708;23.288;2023-04-24T00:29:10;6.95;;;4.93;;
6422;SDS011;3244;42.708;23.288;2023-04-24T00:31:37;11.38;;;4.22;;
6422;SDS011;3244;42.708;23.288;2023-04-24T00:34:04;5.72;;;4.53;;
6422;SDS011;3244;42.708;23.288;2023-04-24T00:36:31;6.10;;;4.93;;
6422;SDS011;3244;42.708;23.288;2023-04-24T00:38:58;5.47;;;4.85;;
6422;SDS011;3244;42.708;23.288;2023-04-24T00:41:24;5.32;;;4.93;;
6422;SDS011;3244;42.708;23.288;2023-04-24T00:43:52;6.28;;;5.35;;
6422;SDS011;3244;42.708;23.288;2023-04-24T00:46:20;6.28;;;5.65;;
6422;SDS011;3244;42.708;23.288;2023-04-24T00:48:47;5.13;;;4.25;;
6422;SDS011;3244;42.708;23.288;2023-04-24T00:51:14;4.28;;;3.97;;
6422;SDS011;3244;42.708;23.288;2023-04-24T00:53:41;5.38;;;4.93;;
6422;SDS011;3244;42.708;23.288;2023-04-24T00:56:07;7.30;;;5.00;;
6422;SDS011;3244;42.708;23.288;2023-04-24T00:58:34;6.03;;;5.50;;
6422;SDS011;3244;42.708;23.288;2023-04-24T01:01:01;7.28;;;5.30;;
6422;SDS011;3244;42.708;23.288;2023-04-24T01:03:33;7.72;;;5.85;;
6422;SDS011;3244;42.708;23.288;2023-04-24T01:06:02;6.32;;;5.63;;
6422;SDS011;3244;42.708;23.288;2023-04-24T01:08:29;9.93;;;6.00;;
6422;SDS011;3244;42.708;23.288;2023-04-24T01:10:57;7.38;;;6.25;;
6422;SDS011;3244;42.708;23.288;2023-04-24T01:13:24;9.43;;;5.85;;
6422;SDS011;3244;42.708;23.288;2023-04-24T01:15:50;6.30;;;5.30;;
6422;SDS011;3244;42.708;23.288;2023-04-24T01:18:17;6.63;;;5.45;;
6422;SDS011;3244;42.708;23.288;2023-04-24T01:20:45;5.88;;;5.43;;
6422;SDS011;3244;42.708;23.288;2023-04-24T01:23:14;6.78;;;5.22;;
6422;SDS011;3244;42.708;23.288;2023-04-24T01:25:41;5.75;;;4.53;;
6422;SDS011;3244;42.708;23.288;2023-04-24T01:28:08;9.23;;;5.13;;
6422;SDS011;3244;42.708;23.288;2023-04-24T01:30:35;5.57;;;4.68;;
6422;SDS011;3244;42.708;23.288;2023-04-24T01:33:02;6.25;;;4.45;;
6422;SDS011;3244;42.708;23.288;2023-04-24T01:35:29;4.75;;;4.00;;
6422;SDS011;3244;42.708;23.288;2023-04-24T01:37:55;12.20;;;4.47;;
6422;SDS011;3244;42.708;23.288;2023-04-24T01:40:24;4.53;;;3.85;;
6422;SDS011;3244;42.708;23.288;2023-04-24T01:42:50;5.05;;;4.55;;
6422;SDS011;3244;42.708;23.288;2023-04-24T01:45:17;6.00;;;3.92;;
6422;SDS011;3244;42.708;23.288;2023-04-24T01:47:44;4.72;;;4.30;;
6422;SDS011;3244;42.708;23.288;2023-04-24T01:50:11;6.82;;;5.10;;
6422;SDS011;3244;42.708;23.288;2023-04-24T01:52:38;6.75;;;4.93;;
6422;SDS011;3244;42.708;23.288;2023-04-24T01:55:05;5.20;;;4.22;;
6422;SDS011;3244;42.708;23.288;2023-04-24T01:57:34;5.00;;;4.60;;
6422;SDS011;3244;42.708;23.288;2023-04-24T02:00:02;12.57;;;5.40;;
6422;SDS011;3244;42.708;23.288;2023-04-24T02:02:30;6.30;;;4.97;;
6422;SDS011;3244;42.708;23.288;2023-04-24T02:04:58;5.22;;;4.82;;
6422;SDS011;3244;42.708;23.288;2023-04-24T02:07:24;5.03;;;4.57;;
6422;SDS011;3244;42.708;23.288;2023-04-24T02:09:51;7.57;;;5.15;;
6422;SDS011;3244;42.708;23.288;2023-04-24T02:12:18;5.95;;;5.43;;
6422;SDS011;3244;42.708;23.288;2023-04-24T02:14:46;6.90;;;5.05;;
6422;SDS011;3244;42.708;23.288;2023-04-24T02:17:13;7.25;;;5.35;;
6422;SDS011;3244;42.708;23.288;2023-04-24T02:19:41;5.85;;;5.35;;
6422;SDS011;3244;42.708;23.288;2023-04-24T02:22:08;6.60;;;5.90;;
6422;SDS011;3244;42.708;23.288;2023-04-24T02:24:35;7.10;;;6.40;;
6422;SDS011;3244;42.708;23.288;2023-04-24T02:27:02;6.65;;;6.10;;
6422;SDS011;3244;42.708;23.288;2023-04-24T02:29:29;9.63;;;6.82;;
6422;SDS011;3244;42.708;23.288;2023-04-24T02:31:57;6.65;;;6.00;;
6422;SDS011;3244;42.708;23.288;2023-04-24T02:34:24;7.03;;;6.35;;
6422;SDS011;3244;42.708;23.288;2023-04-24T02:36:51;8.32;;;7.05;;
6422;SDS011;3244;42.708;23.288;2023-04-24T02:39:18;7.22;;;6.63;;
6422;SDS011;3244;42.708;23.288;2023-04-24T02:41:45;7.55;;;6.93;;
6422;SDS011;3244;42.708;23.288;2023-04-24T02:44:12;7.53;;;6.97;;
6422;SDS011;3244;42.708;23.288;2023-04-24T02:46:39;8.45;;;7.65;;
6422;SDS011;3244;42.708;23.288;2023-04-24T02:49:07;13.23;;;7.65;;
6422;SDS011;3244;42.708;23.288;2023-04-24T02:51:34;12.35;;;8.43;;
6422;SDS011;3244;42.708;23.288;2023-04-24T02:54:03;9.48;;;8.18;;
6422;SDS011;3244;42.708;23.288;2023-04-24T02:56:30;9.02;;;7.90;;
6422;SDS011;3244;42.708;23.288;2023-04-24T02:58:56;10.18;;;7.65;;
6422;SDS011;3244;42.708;23.288;2023-04-24T03:01:23;12.52;;;9.00;;
6422;SDS011;3244;42.708;23.288;2023-04-24T03:03:50;9.85;;;7.80;;
6422;SDS011;3244;42.708;23.288;2023-04-24T03:06:18;11.13;;;8.77;;
6422;SDS011;3244;42.708;23.288;2023-04-24T03:08:46;9.05;;;8.30;;
6422;SDS011;3244;42.708;23.288;2023-04-24T03:11:12;9.23;;;8.30;;
6422;SDS011;3244;42.708;23.288;2023-04-24T03:13:39;8.73;;;8.02;;
6422;SDS011;3244;42.708;23.288;2023-04-24T03:16:06;9.60;;;8.65;;
6422;SDS011;3244;42.708;23.288;2023-04-24T03:18:32;9.23;;;8.43;;
6422;SDS011;3244;42.708;23.288;2023-04-24T03:20:59;9.57;;;8.55;;
6422;SDS011;3244;42.708;23.288;2023-04-24T03:23:28;9.98;;;7.72;;
6422;SDS011;3244;42.708;23.288;2023-04-24T03:25:55;10.70;;;8.20;;
6422;SDS011;3244;42.708;23.288;2023-04-24T03:28:21;9.40;;;8.25;;
6422;SDS011;3244;42.708;23.288;2023-04-24T03:30:50;12.50;;;8.52;;
6422;SDS011;3244;42.708;23.288;2023-04-24T03:33:17;9.55;;;8.52;;
6422;SDS011;3244;42.708;23.288;2023-04-24T03:35:43;11.55;;;8.75;;
6422;SDS011;3244;42.708;23.288;2023-04-24T03:38:10;9.07;;;8.18;;
6422;SDS011;3244;42.708;23.288;2023-04-24T03:40:38;13.55;;;7.97;;
6422;SDS011;3244;42.708;23.288;2023-04-24T03:43:05;12.15;;;8.60;;
6422;SDS011;3244;42.708;23.288;2023-04-24T03:45:32;13.20;;;8.88;;
6422;SDS011;3244;42.708;23.288;2023-04-24T03:47:58;8.90;;;8.13;;
6422;SDS011;3244;42.708;23.288;2023-04-24T03:50:25;10.07;;;8.68;;
6422;SDS011;3244;42.708;23.288;2023-04-24T03:52:54;12.02;;;7.75;;
6422;SDS011;3244;42.708;23.288;2023-04-24T03:55:20;12.57;;;8.35;;
6422;SDS011;3244;42.708;23.288;2023-04-24T03:57:49;14.80;;;8.57;;
6422;SDS011;3244;42.708;23.288;2023-04-24T04:00:15;11.73;;;8.07;;
6422;SDS011;3244;42.708;23.288;2023-04-24T04:02:43;19.63;;;8.80;;
6422;SDS011;3244;42.708;23.288;2023-04-24T04:05:10;15.90;;;9.77;;
6422;SDS011;3244;42.708;23.288;2023-04-24T04:07:37;10.52;;;8.50;;
6422;SDS011;3244;42.708;23.288;2023-04-24T04:10:04;16.25;;;9.00;;
6422;SDS011;3244;42.708;23.288;2023-04-24T04:12:32;12.20;;;9.57;;
6422;SDS011;3244;42.708;23.288;2023-04-24T04:15:00;14.52;;;8.38;;
6422;SDS011;3244;42.708;23.288;2023-04-24T04:17:27;21.63;;;12.98;;
6422;SDS011;3244;42.708;23.288;2023-04-24T04:19:53;27.83;;;17.70;;
6422;SDS011;3244;42.708;23.288;2023-04-24T04:22:21;38.17;;;21.92;;
6422;SDS011;3244;42.708;23.288;2023-04-24T04:24:48;21.95;;;14.35;;
6422;SDS011;3244;42.708;23.288;2023-04-24T04:27:16;10.40;;;9.07;;
6422;SDS011;3244;42.708;23.288;2023-04-24T04:29:43;11.50;;;8.07;;
6422;SDS011;3244;42.708;23.288;2023-04-24T04:32:11;12.00;;;9.30;;
6422;SDS011;3244;42.708;23.288;2023-04-24T04:34:38;23.75;;;9.52;;
6422;SDS011;3244;42.708;23.288;2023-04-24T04:37:05;26.05;;;10.57;;
6422;SDS011;3244;42.708;23.288;2023-04-24T04:39:31;14.77;;;9.63;;
6422;SDS011;3244;42.708;23.288;2023-04-24T04:41:58;13.93;;;8.98;;
6422;SDS011;3244;42.708;23.288;2023-04-24T04:44:25;13.68;;;10.13;;
6422;SDS011;3244;42.708;23.288;2023-04-24T04:46:53;23.52;;;9.93;;
6422;SDS011;3244;42.708;23.288;2023-04-24T04:49:22;14.82;;;9.43;;
6422;SDS011;3244;42.708;23.288;2023-04-24T04:51:49;17.60;;;10.30;;
6422;SDS011;3244;42.708;23.288;2023-04-24T04:54:16;14.27;;;9.90;;
6422;SDS011;3244;42.708;23.288;2023-04-24T04:56:43;18.48;;;9.35;;
6422;SDS011;3244;42.708;23.288;2023-04-24T04:59:10;21.33;;;9.50;;
6422;SDS011;3244;42.708;23.288;2023-04-24T05:01:37;24.13;;;10.48;;
6422;SDS011;3244;42.708;23.288;2023-04-24T05:04:04;19.13;;;9.90;;
6422;SDS011;3244;42.708;23.288;2023-04-24T05:06:32;14.30;;;8.95;;
6422;SDS011;3244;42.708;23.288;2023-04-24T05:08:59;20.00;;;8.35;;
6422;SDS011;3244;42.708;23.288;2023-04-24T05:11:25;19.45;;;10.05;;
6422;SDS011;3244;42.708;23.288;2023-04-24T05:13:52;17.08;;;8.57;;
6422;SDS011;3244;42.708;23.288;2023-04-24T05:16:19;12.02;;;8.20;;
6422;SDS011;3244;42.708;23.288;2023-04-24T05:18:46;12.48;;;7.97;;
6422;SDS011;3244;42.708;23.288;2023-04-24T05:21:13;14.30;;;7.35;;
6422;SDS011;3244;42.708;23.288;2023-04-24T05:23:41;10.02;;;7.78;;
6422;SDS011;3244;42.708;23.288;2023-04-24T05:26:08;17.83;;;8.57;;
6422;SDS011;3244;42.708;23.288;2023-04-24T05:28:35;13.38;;;8.35;;
6422;SDS011;3244;42.708;23.288;2023-04-24T05:31:01;11.95;;;7.75;;
6422;SDS011;3244;42.708;23.288;2023-04-24T05:33:28;11.98;;;6.70;;
6422;SDS011;3244;42.708;23.288;2023-04-24T05:35:55;16.25;;;6.43;;
6422;SDS011;3244;42.708;23.288;2023-04-24T05:38:22;13.77;;;6.20;;
6422;SDS011;3244;42.708;23.288;2023-04-24T05:40:50;10.45;;;6.53;;
6422;SDS011;3244;42.708;23.288;2023-04-24T05:43:17;10.90;;;6.40;;
6422;SDS011;3244;42.708;23.288;2023-04-24T05:45:44;14.68;;;7.45;;
6422;SDS011;3244;42.708;23.288;2023-04-24T05:48:11;14.27;;;6.63;;
6422;SDS011;3244;42.708;23.288;2023-04-24T05:50:38;14.25;;;6.70;;
6422;SDS011;3244;42.708;23.288;2023-04-24T05:53:05;18.33;;;7.72;;
6422;SDS011;3244;42.708;23.288;2023-04-24T05:55:32;11.73;;;6.25;;
6422;SDS011;3244;42.708;23.288;2023-04-24T05:58:00;9.45;;;6.45;;
6422;SDS011;3244;42.708;23.288;2023-04-24T06:00:27;9.95;;;6.47;;
6422;SDS011;3244;42.708;23.288;2023-04-24T06:02:54;10.95;;;7.15;;
6422;SDS011;3244;42.708;23.288;2023-04-24T06:05:21;11.13;;;7.05;;
6422;SDS011;3244;42.708;23.288;2023-04-24T06:07:48;10.32;;;6.72;;
6422;SDS011;3244;42.708;23.288;2023-04-24T06:10:15;10.63;;;6.75;;
6422;SDS011;3244;42.708;23.288;2023-04-24T06:12:41;14.75;;;6.75;;
6422;SDS011;3244;42.708;23.288;2023-04-24T06:15:10;8.10;;;6.10;;
6422;SDS011;3244;42.708;23.288;2023-04-24T06:17:37;8.07;;;5.75;;
6422;SDS011;3244;42.708;23.288;2023-04-24T06:20:05;12.98;;;7.65;;
6422;SDS011;3244;42.708;23.288;2023-04-24T06:22:33;8.25;;;5.45;;
6422;SDS011;3244;42.708;23.288;2023-04-24T06:25:00;8.40;;;4.97;;
6422;SDS011;3244;42.708;23.288;2023-04-24T06:27:27;7.63;;;5.18;;
6422;SDS011;3244;42.708;23.288;2023-04-24T06:29:54;7.38;;;5.22;;
6422;SDS011;3244;42.708;23.288;2023-04-24T06:32:22;6.20;;;4.90;;
6422;SDS011;3244;42.708;23.288;2023-04-24T06:34:50;8.32;;;5.10;;
6422;SDS011;3244;42.708;23.288;2023-04-24T06:37:17;8.80;;;5.13;;
6422;SDS011;3244;42.708;23.288;2023-04-24T06:39:44;8.07;;;6.25;;
6422;SDS011;3244;42.708;23.288;2023-04-24T06:42:11;14.40;;;8.85;;
6422;SDS011;3244;42.708;23.288;2023-04-24T06:44:38;15.98;;;10.15;;
6422;SDS011;3244;42.708;23.288;2023-04-24T06:47:06;10.00;;;6.60;;
6422;SDS011;3244;42.708;23.288;2023-04-24T06:49:35;10.38;;;6.05;;
6422;SDS011;3244;42.708;23.288;2023-04-24T06:52:02;6.03;;;5.22;;
6422;SDS011;3244;42.708;23.288;2023-04-24T06:54:30;8.43;;;6.65;;
6422;SDS011;3244;42.708;23.288;2023-04-24T06:56:57;9.77;;;6.63;;
6422;SDS011;3244;42.708;23.288;2023-04-24T06:59:25;9.77;;;6.32;;
6422;SDS011;3244;42.708;23.288;2023-04-24T07:01:52;9.45;;;6.30;;
6422;SDS011;3244;42.708;23.288;2023-04-24T07:04:19;6.82;;;6.03;;
6422;SDS011;3244;42.708;23.288;2023-04-24T07:06:47;7.80;;;5.95;;
6422;SDS011;3244;42.708;23.288;2023-04-24T07:09:16;7.43;;;6.90;;
6422;SDS011;3244;42.708;23.288;2023-04-24T07:11:43;8.82;;;6.05;;
6422;SDS011;3244;42.708;23.288;2023-04-24T07:14:10;13.80;;;8.98;;
6422;SDS011;3244;42.708;23.288;2023-04-24T07:16:37;8.43;;;5.78;;
6422;SDS011;3244;42.708;23.288;2023-04-24T07:19:04;6.20;;;5.68;;
6422;SDS011;3244;42.708;23.288;2023-04-24T07:21:30;9.52;;;6.80;;
6422;SDS011;3244;42.708;23.288;2023-04-24T07:23:59;7.78;;;6.05;;
6422;SDS011;3244;42.708;23.288;2023-04-24T07:26:26;6.85;;;5.68;;
6422;SDS011;3244;42.708;23.288;2023-04-24T07:28:53;12.55;;;6.03;;
6422;SDS011;3244;42.708;23.288;2023-04-24T07:31:20;6.93;;;5.93;;
6422;SDS011;3244;42.708;23.288;2023-04-24T07:33:47;7.28;;;5.72;;
6422;SDS011;3244;42.708;23.288;2023-04-24T07:36:14;7.50;;;6.57;;
6422;SDS011;3244;42.708;23.288;2023-04-24T07:38:44;15.30;;;6.20;;
6422;SDS011;3244;42.708;23.288;2023-04-24T07:41:12;10.32;;;5.65;;
6422;SDS011;3244;42.708;23.288;2023-04-24T07:43:39;10.30;;;5.50;;
6422;SDS011;3244;42.708;23.288;2023-04-24T07:46:05;6.22;;;5.63;;
6422;SDS011;3244;42.708;23.288;2023-04-24T07:48:32;6.32;;;5.78;;
6422;SDS011;3244;42.708;23.288;2023-04-24T07:50:59;6.72;;;5.53;;
6422;SDS011;3244;42.708;23.288;2023-04-24T07:53:26;5.95;;;5.22;;
6422;SDS011;3244;42.708;23.288;2023-04-24T07:55:53;7.82;;;6.03;;
6422;SDS011;3244;42.708;23.288;2023-04-24T07:58:22;6.18;;;5.68;;
6422;SDS011;3244;42.708;23.288;2023-04-24T08:00:48;6.22;;;5.07;;
6422;SDS011;3244;42.708;23.288;2023-04-24T08:03:15;8.80;;;5.95;;
6422;SDS011;3244;42.708;23.288;2023-04-24T08:05:44;8.13;;;5.40;;
6422;SDS011;3244;42.708;23.288;2023-04-24T08:08:11;7.80;;;5.28;;
6422;SDS011;3244;42.708;23.288;2023-04-24T08:10:38;5.70;;;5.18;;
6422;SDS011;3244;42.708;23.288;2023-04-24T08:13:05;7.22;;;5.07;;
6422;SDS011;3244;42.708;23.288;2023-04-24T08:15:33;7.30;;;5.15;;
6422;SDS011;3244;42.708;23.288;2023-04-24T08:18:00;9.65;;;5.32;;
6422;SDS011;3244;42.708;23.288;2023-04-24T08:20:27;5.82;;;5.32;;
6422;SDS011;3244;42.708;23.288;2023-04-24T08:22:53;9.18;;;5.63;;
6422;SDS011;3244;42.708;23.288;2023-04-24T08:25:21;6.10;;;5.55;;
6422;SDS011;3244;42.708;23.288;2023-04-24T08:27:49;9.27;;;5.43;;
6422;SDS011;3244;42.708;23.288;2023-04-24T08:30:16;12.07;;;5.82;;
6422;SDS011;3244;42.708;23.288;2023-04-24T08:32:45;6.20;;;4.88;;
6422;SDS011;3244;42.708;23.288;2023-04-24T08:35:11;9.48;;;4.68;;
6422;SDS011;3244;42.708;23.288;2023-04-24T08:37:38;7.47;;;5.47;;
6422;SDS011;3244;42.708;23.288;2023-04-24T08:40:06;8.48;;;5.32;;
6422;SDS011;3244;42.708;23.288;2023-04-24T08:42:39;9.43;;;5.47;;
6422;SDS011;3244;42.708;23.288;2023-04-24T08:45:07;10.52;;;4.45;;
6422;SDS011;3244;42.708;23.288;2023-04-24T08:47:35;6.35;;;5.85;;
6422;SDS011;3244;42.708;23.288;2023-04-24T08:50:06;5.72;;;5.22;;
6422;SDS011;3244;42.708;23.288;2023-04-24T08:52:34;7.95;;;5.82;;
6422;SDS011;3244;42.708;23.288;2023-04-24T08:55:01;8.80;;;4.97;;
6422;SDS011;3244;42.708;23.288;2023-04-24T08:57:28;10.80;;;5.28;;
6422;SDS011;3244;42.708;23.288;2023-04-24T08:59:57;8.10;;;5.82;;
6422;SDS011;3244;42.708;23.288;2023-04-24T09:02:25;9.23;;;5.78;;
6422;SDS011;3244;42.708;23.288;2023-04-24T09:04:52;13.23;;;5.05;;
6422;SDS011;3244;42.708;23.288;2023-04-24T09:07:20;8.00;;;5.00;;
6422;SDS011;3244;42.708;23.288;2023-04-24T09:09:51;5.90;;;5.38;;
6422;SDS011;3244;42.708;23.288;2023-04-24T09:12:18;7.68;;;6.18;;
6422;SDS011;3244;42.708;23.288;2023-04-24T09:14:45;6.30;;;5.80;;
6422;SDS011;3244;42.708;23.288;2023-04-24T09:17:14;11.55;;;5.53;;
6422;SDS011;3244;42.708;23.288;2023-04-24T09:19:40;7.50;;;5.85;;
6422;SDS011;3244;42.708;23.288;2023-04-24T09:22:07;10.15;;;5.88;;
6422;SDS011;3244;42.708;23.288;2023-04-24T09:24:37;7.93;;;5.53;;
6422;SDS011;3244;42.708;23.288;2023-04-24T09:27:05;6.63;;;5.95;;
6422;SDS011;3244;42.708;23.288;2023-04-24T09:29:31;6.60;;;5.70;;
6422;SDS011;3244;42.708;23.288;2023-04-24T09:31:59;6.03;;;5.53;;
6422;SDS011;3244;42.708;23.288;2023-04-24T09:34:26;10.48;;;5.22;;
6422;SDS011;3244;42.708;23.288;2023-04-24T09:36:53;5.97;;;5.45;;
6422;SDS011;3244;42.708;23.288;2023-04-24T09:39:21;7.07;;;4.93;;
6422;SDS011;3244;42.708;23.288;2023-04-24T09:41:49;7.10;;;5.13;;
6422;SDS011;3244;42.708;23.288;2023-04-24T09:44:17;7.05;;;4.75;;
6422;SDS011;3244;42.708;23.288;2023-04-24T09:46:48;9.00;;;5.57;;
6422;SDS011;3244;42.708;23.288;2023-04-24T09:49:20;6.07;;;5.47;;
6422;SDS011;3244;42.708;23.288;2023-04-24T09:51:48;8.25;;;5.53;;
6422;SDS011;3244;42.708;23.288;2023-04-24T09:54:16;6.53;;;5.68;;
6422;SDS011;3244;42.708;23.288;2023-04-24T09:56:45;5.68;;;5.28;;
6422;SDS011;3244;42.708;23.288;2023-04-24T09:59:14;6.05;;;5.53;;
6422;SDS011;3244;42.708;23.288;2023-04-24T10:01:42;7.97;;;4.90;;
6422;SDS011;3244;42.708;23.288;2023-04-24T10:04:15;5.85;;;5.45;;
6422;SDS011;3244;42.708;23.288;2023-04-24T10:06:43;5.60;;;5.10;;
6422;SDS011;3244;42.708;23.288;2023-04-24T10:09:10;7.00;;;4.63;;
6422;SDS011;3244;42.708;23.288;2023-04-24T10:11:39;5.97;;;5.40;;
6422;SDS011;3244;42.708;23.288;2023-04-24T10:14:08;6.25;;;5.20;;
6422;SDS011;3244;42.708;23.288;2023-04-24T10:16:38;6.15;;;4.57;;
6422;SDS011;3244;42.708;23.288;2023-04-24T10:19:06;5.47;;;4.97;;
6422;SDS011;3244;42.708;23.288;2023-04-24T10:21:33;9.40;;;4.60;;
6422;SDS011;3244;42.708;23.288;2023-04-24T10:24:00;7.40;;;4.43;;
6422;SDS011;3244;42.708;23.288;2023-04-24T10:26:28;5.32;;;4.88;;
6422;SDS011;3244;42.708;23.288;2023-04-24T10:28:56;8.30;;;5.32;;
6422;SDS011;3244;42.708;23.288;2023-04-24T10:31:24;8.02;;;4.57;;
6422;SDS011;3244;42.708;23.288;2023-04-24T10:33:53;7.70;;;5.00;;
6422;SDS011;3244;42.708;23.288;2023-04-24T10:36:22;5.90;;;4.35;;
6422;SDS011;3244;42.708;23.288;2023-04-24T10:38:51;5.45;;;5.03;;
6422;SDS011;3244;42.708;23.288;2023-04-24T10:41:21;5.53;;;4.50;;
6422;SDS011;3244;42.708;23.288;2023-04-24T10:44:03;5.32;;;4.75;;
6422;SDS011;3244;42.708;23.288;2023-04-24T10:46:31;6.38;;;4.32;;
6422;SDS011;3244;42.708;23.288;2023-04-24T10:48:59;7.63;;;4.60;;
6422;SDS011;3244;42.708;23.288;2023-04-24T10:51:43;3.75;;;3.53;;
6422;SDS011;3244;42.708;23.288;2023-04-24T10:54:25;8.35;;;4.53;;
6422;SDS011;3244;42.708;23.288;2023-04-24T10:56:52;6.88;;;4.35;;
6422;SDS011;3244;42.708;23.288;2023-04-24T10:59:23;5.82;;;4.97;;
6422;SDS011;3244;42.708;23.288;2023-04-24T11:01:52;5.93;;;4.72;;
6422;SDS011;3244;42.708;23.288;2023-04-24T11:04:30;6.80;;;4.35;;
6422;SDS011;3244;42.708;23.288;2023-04-24T11:06:58;7.28;;;3.95;;
6422;SDS011;3244;42.708;23.288;2023-04-24T11:09:26;6.47;;;4.72;;
6422;SDS011;3244;42.708;23.288;2023-04-24T11:12:03;19.00;;;5.07;;
6422;SDS011;3244;42.708;23.288;2023-04-24T11:17:30;5.20;;;4.70;;
6422;SDS011;3244;42.708;23.288;2023-04-24T11:20:03;8.63;;;6.65;;
6422;SDS011;3244;42.708;23.288;2023-04-24T11:22:32;10.80;;;5.43;;
6422;SDS011;3244;42.708;23.288;2023-04-24T11:25:01;13.35;;;5.70;;
6422;SDS011;3244;42.708;23.288;2023-04-24T11:27:29;6.63;;;6.03;;
6422;SDS011;3244;42.708;23.288;2023-04-24T11:30:00;10.23;;;6.05;;
6422;SDS011;3244;42.708;23.288;2023-04-24T11:32:28;10.82;;;5.80;;
6422;SDS011;3244;42.708;23.288;2023-04-24T11:34:56;7.13;;;6.22;;
6422;SDS011;3244;42.708;23.288;2023-04-24T11:37:27;7.88;;;5.13;;
6422;SDS011;3244;42.708;23.288;2023-04-24T11:39:56;4.80;;;4.40;;
6422;SDS011;3244;42.708;23.288;2023-04-24T11:42:24;5.97;;;5.55;;
6422;SDS011;3244;42.708;23.288;2023-04-24T11:44:52;4.82;;;4.40;;
6422;SDS011;3244;42.708;23.288;2023-04-24T11:47:20;4.43;;;4.07;;
6422;SDS011;3244;42.708;23.288;2023-04-24T11:49:54;4.97;;;4.63;;
6422;SDS011;3244;42.708;23.288;2023-04-24T11:52:21;4.18;;;3.88;;
6422;SDS011;3244;42.708;23.288;2023-04-24T11:54:49;7.07;;;4.38;;
6422;SDS011;3244;42.708;23.288;2023-04-24T11:57:16;4.05;;;3.70;;
6422;SDS011;3244;42.708;23.288;2023-04-24T11:59:45;5.38;;;4.43;;
6422;SDS011;3244;42.708;23.288;2023-04-24T12:02:19;4.55;;;4.22;;
6422;SDS011;3244;42.708;23.288;2023-04-24T12:04:47;5.93;;;4.55;;
6422;SDS011;3244;42.708;23.288;2023-04-24T12:07:14;6.25;;;3.90;;
6422;SDS011;3244;42.708;23.288;2023-04-24T12:09:41;3.83;;;3.63;;
6422;SDS011;3244;42.708;23.288;2023-04-24T12:12:11;3.88;;;3.50;;
6422;SDS011;3244;42.708;23.288;2023-04-24T12:14:43;5.32;;;4.93;;
6422;SDS011;3244;42.708;23.288;2023-04-24T12:17:23;9.32;;;4.07;;
6422;SDS011;3244;42.708;23.288;2023-04-24T12:19:56;3.67;;;3.45;;
6422;SDS011;3244;42.708;23.288;2023-04-24T12:22:24;4.75;;;4.03;;
6422;SDS011;3244;42.708;23.288;2023-04-24T12:24:58;4.28;;;3.85;;
6422;SDS011;3244;42.708;23.288;2023-04-24T12:27:28;4.15;;;3.85;;
6422;SDS011;3244;42.708;23.288;2023-04-24T12:29:56;3.80;;;3.50;;
6422;SDS011;3244;42.708;23.288;2023-04-24T12:32:24;3.50;;;3.30;;
6422;SDS011;3244;42.708;23.288;2023-04-24T12:34:51;5.68;;;3.47;;
6422;SDS011;3244;42.708;23.288;2023-04-24T12:37:18;7.50;;;3.53;;
6422;SDS011;3244;42.708;23.288;2023-04-24T12:39:57;5.85;;;3.50;;
6422;SDS011;3244;42.708;23.288;2023-04-24T12:42:26;3.90;;;3.30;;
6422;SDS011;3244;42.708;23.288;2023-04-24T12:44:58;5.20;;;3.67;;
6422;SDS011;3244;42.708;23.288;2023-04-24T12:47:26;4.90;;;3.58;;
6422;SDS011;3244;42.708;23.288;2023-04-24T12:49:53;4.00;;;3.80;;
6422;SDS011;3244;42.708;23.288;2023-04-24T12:52:20;4.55;;;3.70;;
6422;SDS011;3244;42.708;23.288;2023-04-24T12:54:48;3.88;;;3.60;;
6422;SDS011;3244;42.708;23.288;2023-04-24T12:57:15;3.70;;;3.50;;
6422;SDS011;3244;42.708;23.288;2023-04-24T12:59:43;4.75;;;4.35;;
6422;SDS011;3244;42.708;23.288;2023-04-24T13:02:10;3.33;;;3.13;;
6422;SDS011;3244;42.708;23.288;2023-04-24T13:04:37;4.78;;;4.15;;
6422;SDS011;3244;42.708;23.288;2023-04-24T13:07:04;4.20;;;3.97;;
6422;SDS011;3244;42.708;23.288;2023-04-24T13:09:31;3.67;;;3.38;;
6422;SDS011;3244;42.708;23.288;2023-04-24T13:12:00;6.53;;;5.93;;
6422;SDS011;3244;42.708;23.288;2023-04-24T13:14:27;4.78;;;4.55;;
6422;SDS011;3244;42.708;23.288;2023-04-24T13:16:55;5.72;;;4.43;;
6422;SDS011;3244;42.708;23.288;2023-04-24T13:19:23;7.18;;;3.78;;
6422;SDS011;3244;42.708;23.288;2023-04-24T13:21:50;4.15;;;3.85;;
6422;SDS011;3244;42.708;23.288;2023-04-24T13:24:17;5.18;;;3.72;;
6422;SDS011;3244;42.708;23.288;2023-04-24T13:26:44;5.93;;;4.30;;
6422;SDS011;3244;42.708;23.288;2023-04-24T13:29:10;4.18;;;3.88;;
6422;SDS011;3244;42.708;23.288;2023-04-24T13:31:37;8.77;;;4.57;;
6422;SDS011;3244;42.708;23.288;2023-04-24T13:34:05;6.90;;;3.78;;
6422;SDS011;3244;42.708;23.288;2023-04-24T13:36:32;8.00;;;3.22;;
6422;SDS011;3244;42.708;23.288;2023-04-24T13:38:59;3.90;;;3.60;;
6422;SDS011;3244;42.708;23.288;2023-04-24T13:41:26;5.95;;;3.78;;
6422;SDS011;3244;42.708;23.288;2023-04-24T13:43:52;4.72;;;4.22;;
6422;SDS011;3244;42.708;23.288;2023-04-24T13:46:19;4.00;;;3.70;;
6422;SDS011;3244;42.708;23.288;2023-04-24T13:48:46;4.13;;;3.83;;
6422;SDS011;3244;42.708;23.288;2023-04-24T13:51:14;3.97;;;3.58;;
6422;SDS011;3244;42.708;23.288;2023-04-24T13:53:41;4.82;;;3.28;;
6422;SDS011;3244;42.708;23.288;2023-04-24T13:56:07;3.95;;;3.42;;
6422;SDS011;3244;42.708;23.288;2023-04-24T13:58:34;3.88;;;3.53;;
6422;SDS011;3244;42.708;23.288;2023-04-24T14:01:02;5.38;;;4.60;;
6422;SDS011;3244;42.708;23.288;2023-04-24T14:03:29;4.40;;;3.78;;
6422;SDS011;3244;42.708;23.288;2023-04-24T14:05:56;4.28;;;3.97;;
6422;SDS011;3244;42.708;23.288;2023-04-24T14:08:24;4.68;;;4.22;;
6422;SDS011;3244;42.708;23.288;2023-04-24T14:10:51;5.70;;;3.60;;
6422;SDS011;3244;42.708;23.288;2023-04-24T14:13:18;5.72;;;3.97;;
6422;SDS011;3244;42.708;23.288;2023-04-24T14:15:45;8.20;;;4.07;;
6422;SDS011;3244;42.708;23.288;2023-04-24T14:18:12;3.40;;;3.15;;
6422;SDS011;3244;42.708;23.288;2023-04-24T14:20:39;3.88;;;3.00;;
6422;SDS011;3244;42.708;23.288;2023-04-24T14:23:06;3.25;;;2.95;;
6422;SDS011;3244;42.708;23.288;2023-04-24T14:25:34;4.00;;;3.60;;
6422;SDS011;3244;42.708;23.288;2023-04-24T14:28:01;3.13;;;2.92;;
6422;SDS011;3244;42.708;23.288;2023-04-24T14:30:28;3.95;;;3.30;;
6422;SDS011;3244;42.708;23.288;2023-04-24T14:32:55;9.00;;;4.20;;
6422;SDS011;3244;42.708;23.288;2023-04-24T14:35:22;4.35;;;4.07;;
6422;SDS011;3244;42.708;23.288;2023-04-24T14:37:49;4.00;;;3.70;;
6422;SDS011;3244;42.708;23.288;2023-04-24T14:40:16;5.47;;;3.15;;
6422;SDS011;3244;42.708;23.288;2023-04-24T14:42:44;3.63;;;3.42;;
6422;SDS011;3244;42.708;23.288;2023-04-24T14:45:11;5.00;;;3.72;;
6422;SDS011;3244;42.708;23.288;2023-04-24T14:47:37;4.22;;;4.03;;
6422;SDS011;3244;42.708;23.288;2023-04-24T14:50:05;5.00;;;3.65;;
6422;SDS011;3244;42.708;23.288;2023-04-24T14:52:33;4.18;;;3.67;;
6422;SDS011;3244;42.708;23.288;2023-04-24T14:55:00;3.40;;;3.20;;
6422;SDS011;3244;42.708;23.288;2023-04-24T14:57:26;4.03;;;3.45;;
6422;SDS011;3244;42.708;23.288;2023-04-24T14:59:55;4.15;;;3.95;;
6422;SDS011;3244;42.708;23.288;2023-04-24T15:02:22;4.70;;;3.92;;
6422;SDS011;3244;42.708;23.288;2023-04-24T15:04:49;5.20;;;3.85;;